sensor_id;sensor_type;location;lat;lon;timestamp;temperature;humidity
6841;DHT22;3458;53.678;14.080;2023-11-21T00:01:54;7.30;99.90
6841;DHT22;3458;53.678;14.080;2023-11-21T00:04:19;7.30;99.90
6841;DHT22;3458;53.678;14.080;2023-11-21T00:06:45;7.20;99.90
6841;DHT22;3458;53.678;14.080;2023-11-21T00:09:12;7.30;99.90
6841;DHT22;3458;53.678;14.080;2023-11-21T00:11:38;7.30;99.90
6841;DHT22;3458;53.678;14.080;2023-11-21T00:14:04;7.30;99.90
6841;DHT22;3458;53.678;14.080;2023-11-21T00:16:30;7.30;99.90
6841;DHT22;3458;53.678;14.080;2023-11-21T00:18:55;7.30;99.90
6841;DHT22;3458;53.678;14.080;2023-11-21T00:21:21;7.30;99.90
6841;DHT22;3458;53.678;14.080;2023-11-21T00:23:46;7.30;99.90
6841;DHT22;3458;53.678;14.080;2023-11-21T00:26:12;7.30;99.90
6841;DHT22;3458;53.678;14.080;2023-11-21T00:28:37;7.30;99.90
6841;DHT22;3458;53.678;14.080;2023-11-21T00:31:03;7.30;99.90
6841;DHT22;3458;53.678;14.080;2023-11-21T00:33:29;7.30;99.90
6841;DHT22;3458;53.678;14.080;2023-11-21T00:35:55;7.20;99.90
6841;DHT22;3458;53.678;14.080;2023-11-21T00:38:20;7.20;99.90
6841;DHT22;3458;53.678;14.080;2023-11-21T00:40:46;7.20;99.90
6841;DHT22;3458;53.678;14.080;2023-11-21T00:43:12;7.20;99.90
6841;DHT22;3458;53.678;14.080;2023-11-21T00:45:37;7.20;99.90
6841;DHT22;3458;53.678;14.080;2023-11-21T00:48:03;7.20;99.90
6841;DHT22;3458;53.678;14.080;2023-11-21T00:50:30;7.20;99.90
6841;DHT22;3458;53.678;14.080;2023-11-21T00:52:55;7.20;99.90
6841;DHT22;3458;53.678;14.080;2023-11-21T00:55:21;7.20;99.90
6841;DHT22;3458;53.678;14.080;2023-11-21T00:57:47;7.20;99.90
6841;DHT22;3458;53.678;14.080;2023-11-21T01:00:13;7.20;99.90
6841;DHT22;3458;53.678;14.080;2023-11-21T01:02:42;7.20;99.90
6841;DHT22;3458;53.678;14.080;2023-11-21T01:05:09;7.20;99.90
6841;DHT22;3458;53.678;14.080;2023-11-21T01:07:35;7.20;99.90
6841;DHT22;3458;53.678;14.080;2023-11-21T01:10:02;7.20;99.90
6841;DHT22;3458;53.678;14.080;2023-11-21T01:12:27;7.20;99.90
6841;DHT22;3458;53.678;14.080;2023-11-21T01:14:53;7.10;99.90
6841;DHT22;3458;53.678;14.080;2023-11-21T01:17:19;7.10;99.90
6841;DHT22;3458;53.678;14.080;2023-11-21T01:19:44;7.10;99.90
6841;DHT22;3458;53.678;14.080;2023-11-21T01:22:10;7.00;99.90
6841;DHT22;3458;53.678;14.080;2023-11-21T01:24:37;7.00;99.90
6841;DHT22;3458;53.678;14.080;2023-11-21T01:27:02;7.00;99.90
6841;DHT22;3458;53.678;14.080;2023-11-21T01:29:29;7.00;99.90
6841;DHT22;3458;53.678;14.080;2023-11-21T01:31:55;7.00;99.90
6841;DHT22;3458;53.678;14.080;2023-11-21T01:34:22;7.00;99.90
6841;DHT22;3458;53.678;14.080;2023-11-21T01:36:48;6.90;99.90
6841;DHT22;3458;53.678;14.080;2023-11-21T01:39:15;6.90;99.90
6841;DHT22;3458;53.678;14.080;2023-11-21T01:41:41;7.00;99.90
6841;DHT22;3458;53.678;14.080;2023-11-21T01:44:09;6.90;99.90
6841;DHT22;3458;53.678;14.080;2023-11-21T01:46:35;6.90;99.90
6841;DHT22;3458;53.678;14.080;2023-11-21T01:49:01;6.90;99.90
6841;DHT22;3458;53.678;14.080;2023-11-21T01:51:26;6.90;99.90
6841;DHT22;3458;53.678;14.080;2023-11-21T01:53:52;6.90;99.90
6841;DHT22;3458;53.678;14.080;2023-11-21T01:56:18;6.90;99.90
6841;DHT22;3458;53.678;14.080;2023-11-21T01:58:43;6.90;99.90
6841;DHT22;3458;53.678;14.080;2023-11-21T02:01:09;6.90;99.90
6841;DHT22;3458;53.678;14.080;2023-11-21T02:03:35;6.90;99.90
6841;DHT22;3458;53.678;14.080;2023-11-21T02:06:01;6.90;99.90
6841;DHT22;3458;53.678;14.080;2023-11-21T02:08:26;6.90;99.90
6841;DHT22;3458;53.678;14.080;2023-11-21T02:10:52;6.90;99.90
6841;DHT22;3458;53.678;14.080;2023-11-21T02:13:17;6.90;99.90
6841;DHT22;3458;53.678;14.080;2023-11-21T02:15:43;6.90;99.90
6841;DHT22;3458;53.678;14.080;2023-11-21T02:18:09;6.90;99.90
6841;DHT22;3458;53.678;14.080;2023-11-21T02:20:36;6.90;99.90
6841;DHT22;3458;53.678;14.080;2023-11-21T02:23:04;6.90;99.90
6841;DHT22;3458;53.678;14.080;2023-11-21T02:25:31;6.90;99.90
6841;DHT22;3458;53.678;14.080;2023-11-21T02:27:58;6.90;99.90
6841;DHT22;3458;53.678;14.080;2023-11-21T02:30:24;6.90;99.90
6841;DHT22;3458;53.678;14.080;2023-11-21T02:32:57;6.90;99.90
6841;DHT22;3458;53.678;14.080;2023-11-21T02:35:23;6.80;99.90
6841;DHT22;3458;53.678;14.080;2023-11-21T02:37:51;6.70;99.90
6841;DHT22;3458;53.678;14.080;2023-11-21T02:40:16;6.70;99.90
6841;DHT22;3458;53.678;14.080;2023-11-21T02:42:50;6.80;99.90
6841;DHT22;3458;53.678;14.080;2023-11-21T02:45:20;6.80;99.90
6841;DHT22;3458;53.678;14.080;2023-11-21T02:47:49;6.80;99.90
6841;DHT22;3458;53.678;14.080;2023-11-21T02:50:15;6.80;99.90
6841;DHT22;3458;53.678;14.080;2023-11-21T02:52:40;6.80;99.90
6841;DHT22;3458;53.678;14.080;2023-11-21T02:55:06;6.80;99.90
6841;DHT22;3458;53.678;14.080;2023-11-21T02:57:35;6.80;99.90
6841;DHT22;3458;53.678;14.080;2023-11-21T03:00:01;6.80;99.90
6841;DHT22;3458;53.678;14.080;2023-11-21T03:02:26;6.80;99.90
6841;DHT22;3458;53.678;14.080;2023-11-21T03:04:52;6.80;99.90
6841;DHT22;3458;53.678;14.080;2023-11-21T03:07:17;6.80;99.90
6841;DHT22;3458;53.678;14.080;2023-11-21T03:09:47;6.70;99.90
6841;DHT22;3458;53.678;14.080;2023-11-21T03:12:12;6.70;99.90
6841;DHT22;3458;53.678;14.080;2023-11-21T03:14:39;6.80;99.90
6841;DHT22;3458;53.678;14.080;2023-11-21T03:17:04;6.70;99.90
6841;DHT22;3458;53.678;14.080;2023-11-21T03:19:30;6.70;99.90
6841;DHT22;3458;53.678;14.080;2023-11-21T03:21:56;6.70;99.90
6841;DHT22;3458;53.678;14.080;2023-11-21T03:24:21;6.70;99.90
6841;DHT22;3458;53.678;14.080;2023-11-21T03:26:48;6.70;99.90
6841;DHT22;3458;53.678;14.080;2023-11-21T03:29:13;6.70;99.90
6841;DHT22;3458;53.678;14.080;2023-11-21T03:31:40;6.70;99.90
6841;DHT22;3458;53.678;14.080;2023-11-21T03:34:06;6.70;99.90
6841;DHT22;3458;53.678;14.080;2023-11-21T03:36:31;6.70;99.90
6841;DHT22;3458;53.678;14.080;2023-11-21T03:38:57;6.70;99.90
6841;DHT22;3458;53.678;14.080;2023-11-21T03:41:22;6.70;99.90
6841;DHT22;3458;53.678;14.080;2023-11-21T03:43:48;6.70;99.90
6841;DHT22;3458;53.678;14.080;2023-11-21T03:46:13;6.60;99.90
6841;DHT22;3458;53.678;14.080;2023-11-21T03:48:39;6.60;99.90
6841;DHT22;3458;53.678;14.080;2023-11-21T03:51:05;6.50;99.90
6841;DHT22;3458;53.678;14.080;2023-11-21T03:53:30;6.50;99.90
6841;DHT22;3458;53.678;14.080;2023-11-21T03:55:57;6.60;99.90
6841;DHT22;3458;53.678;14.080;2023-11-21T03:58:22;6.60;99.90
6841;DHT22;3458;53.678;14.080;2023-11-21T04:00:48;6.60;99.90
6841;DHT22;3458;53.678;14.080;2023-11-21T04:03:14;6.60;99.90
6841;DHT22;3458;53.678;14.080;2023-11-21T04:05:40;6.60;99.90
6841;DHT22;3458;53.678;14.080;2023-11-21T04:08:06;6.60;99.90
6841;DHT22;3458;53.678;14.080;2023-11-21T04:10:32;6.60;99.90
6841;DHT22;3458;53.678;14.080;2023-11-21T04:12:58;6.60;99.90
6841;DHT22;3458;53.678;14.080;2023-11-21T04:15:23;6.60;99.90
6841;DHT22;3458;53.678;14.080;2023-11-21T04:17:49;6.60;99.90
6841;DHT22;3458;53.678;14.080;2023-11-21T04:20:14;6.70;99.90
6841;DHT22;3458;53.678;14.080;2023-11-21T04:22:40;6.60;99.90
6841;DHT22;3458;53.678;14.080;2023-11-21T04:25:10;6.60;99.90
6841;DHT22;3458;53.678;14.080;2023-11-21T04:27:37;6.60;99.90
6841;DHT22;3458;53.678;14.080;2023-11-21T04:30:03;6.60;99.90
6841;DHT22;3458;53.678;14.080;2023-11-21T04:32:30;6.60;99.90
6841;DHT22;3458;53.678;14.080;2023-11-21T04:34:56;6.50;99.90
6841;DHT22;3458;53.678;14.080;2023-11-21T04:37:21;6.50;99.90
6841;DHT22;3458;53.678;14.080;2023-11-21T04:39:47;6.40;99.90
6841;DHT22;3458;53.678;14.080;2023-11-21T04:42:12;6.40;99.90
6841;DHT22;3458;53.678;14.080;2023-11-21T04:44:38;6.40;99.90
6841;DHT22;3458;53.678;14.080;2023-11-21T04:47:06;6.40;99.90
6841;DHT22;3458;53.678;14.080;2023-11-21T04:49:32;6.40;99.90
6841;DHT22;3458;53.678;14.080;2023-11-21T04:51:57;6.40;99.90
6841;DHT22;3458;53.678;14.080;2023-11-21T04:54:22;6.30;99.90
6841;DHT22;3458;53.678;14.080;2023-11-21T04:56:48;6.30;99.90
6841;DHT22;3458;53.678;14.080;2023-11-21T04:59:13;6.30;99.90
6841;DHT22;3458;53.678;14.080;2023-11-21T05:01:39;6.20;99.90
6841;DHT22;3458;53.678;14.080;2023-11-21T05:04:04;6.20;99.90
6841;DHT22;3458;53.678;14.080;2023-11-21T05:06:31;6.20;99.90
6841;DHT22;3458;53.678;14.080;2023-11-21T05:08:56;6.20;99.90
6841;DHT22;3458;53.678;14.080;2023-11-21T05:11:26;6.20;99.90
6841;DHT22;3458;53.678;14.080;2023-11-21T05:13:51;6.30;99.90
6841;DHT22;3458;53.678;14.080;2023-11-21T05:16:17;6.30;99.90
6841;DHT22;3458;53.678;14.080;2023-11-21T05:18:42;6.20;99.90
6841;DHT22;3458;53.678;14.080;2023-11-21T05:21:08;6.20;99.90
6841;DHT22;3458;53.678;14.080;2023-11-21T05:23:33;6.20;99.90
6841;DHT22;3458;53.678;14.080;2023-11-21T05:25:59;6.20;99.90
6841;DHT22;3458;53.678;14.080;2023-11-21T05:28:24;6.10;99.90
6841;DHT22;3458;53.678;14.080;2023-11-21T05:30:50;6.10;99.90
6841;DHT22;3458;53.678;14.080;2023-11-21T05:33:16;6.10;99.90
6841;DHT22;3458;53.678;14.080;2023-11-21T05:35:41;6.10;99.90
6841;DHT22;3458;53.678;14.080;2023-11-21T05:38:07;6.00;99.90
6841;DHT22;3458;53.678;14.080;2023-11-21T05:40:32;5.80;99.90
6841;DHT22;3458;53.678;14.080;2023-11-21T05:42:58;5.90;99.90
6841;DHT22;3458;53.678;14.080;2023-11-21T05:45:24;5.90;99.90
6841;DHT22;3458;53.678;14.080;2023-11-21T05:47:49;6.00;99.90
6841;DHT22;3458;53.678;14.080;2023-11-21T05:50:16;6.00;99.90
6841;DHT22;3458;53.678;14.080;2023-11-21T05:52:43;6.10;99.90
6841;DHT22;3458;53.678;14.080;2023-11-21T05:55:09;6.20;99.90
6841;DHT22;3458;53.678;14.080;2023-11-21T05:57:39;6.20;99.90
6841;DHT22;3458;53.678;14.080;2023-11-21T06:00:06;6.20;99.90
6841;DHT22;3458;53.678;14.080;2023-11-21T06:02:59;6.20;99.90
6841;DHT22;3458;53.678;14.080;2023-11-21T06:05:25;6.10;99.90
6841;DHT22;3458;53.678;14.080;2023-11-21T06:07:52;6.10;99.90
6841;DHT22;3458;53.678;14.080;2023-11-21T06:10:20;6.00;99.90
6841;DHT22;3458;53.678;14.080;2023-11-21T06:12:46;5.90;99.90
6841;DHT22;3458;53.678;14.080;2023-11-21T06:15:11;6.00;99.90
6841;DHT22;3458;53.678;14.080;2023-11-21T06:17:39;6.00;99.90
6841;DHT22;3458;53.678;14.080;2023-11-21T06:20:09;5.90;99.90
6841;DHT22;3458;53.678;14.080;2023-11-21T06:22:36;5.90;99.90
6841;DHT22;3458;53.678;14.080;2023-11-21T06:25:02;5.80;99.90
6841;DHT22;3458;53.678;14.080;2023-11-21T06:27:31;5.90;99.90
6841;DHT22;3458;53.678;14.080;2023-11-21T06:29:56;5.90;99.90
6841;DHT22;3458;53.678;14.080;2023-11-21T06:32:22;6.00;99.90
6841;DHT22;3458;53.678;14.080;2023-11-21T06:34:48;6.00;99.90
6841;DHT22;3458;53.678;14.080;2023-11-21T06:37:14;5.90;99.90
6841;DHT22;3458;53.678;14.080;2023-11-21T06:39:40;5.90;99.90
6841;DHT22;3458;53.678;14.080;2023-11-21T06:42:05;6.00;99.90
6841;DHT22;3458;53.678;14.080;2023-11-21T06:44:31;6.00;99.90
6841;DHT22;3458;53.678;14.080;2023-11-21T06:46:58;5.90;99.90
6841;DHT22;3458;53.678;14.080;2023-11-21T06:49:24;6.00;99.90
6841;DHT22;3458;53.678;14.080;2023-11-21T06:51:50;6.00;99.90
6841;DHT22;3458;53.678;14.080;2023-11-21T06:54:15;5.90;99.90
6841;DHT22;3458;53.678;14.080;2023-11-21T06:56:41;6.00;99.90
6841;DHT22;3458;53.678;14.080;2023-11-21T06:59:06;5.90;99.90
6841;DHT22;3458;53.678;14.080;2023-11-21T07:01:32;5.80;99.90
6841;DHT22;3458;53.678;14.080;2023-11-21T07:04:04;5.70;99.90
6841;DHT22;3458;53.678;14.080;2023-11-21T07:06:30;5.60;99.90
6841;DHT22;3458;53.678;14.080;2023-11-21T07:08:55;5.50;99.90
6841;DHT22;3458;53.678;14.080;2023-11-21T07:11:21;5.40;99.90
6841;DHT22;3458;53.678;14.080;2023-11-21T07:13:46;5.40;99.90
6841;DHT22;3458;53.678;14.080;2023-11-21T07:16:12;5.40;99.90
6841;DHT22;3458;53.678;14.080;2023-11-21T07:18:38;5.30;99.90
6841;DHT22;3458;53.678;14.080;2023-11-21T07:21:04;5.30;99.90
6841;DHT22;3458;53.678;14.080;2023-11-21T07:23:29;5.30;99.90
6841;DHT22;3458;53.678;14.080;2023-11-21T07:25:55;5.20;99.90
6841;DHT22;3458;53.678;14.080;2023-11-21T07:28:20;5.30;99.90
6841;DHT22;3458;53.678;14.080;2023-11-21T07:30:46;5.30;99.90
6841;DHT22;3458;53.678;14.080;2023-11-21T07:33:11;5.30;99.90
6841;DHT22;3458;53.678;14.080;2023-11-21T07:35:37;5.40;99.90
6841;DHT22;3458;53.678;14.080;2023-11-21T07:38:02;5.40;99.90
6841;DHT22;3458;53.678;14.080;2023-11-21T07:40:29;5.40;99.90
6841;DHT22;3458;53.678;14.080;2023-11-21T07:42:54;5.50;99.90
6841;DHT22;3458;53.678;14.080;2023-11-21T07:45:22;5.40;99.90
6841;DHT22;3458;53.678;14.080;2023-11-21T07:47:48;5.20;99.90
6841;DHT22;3458;53.678;14.080;2023-11-21T07:50:13;5.10;99.90
6841;DHT22;3458;53.678;14.080;2023-11-21T07:52:39;5.00;99.90
6841;DHT22;3458;53.678;14.080;2023-11-21T07:55:05;5.10;99.90
6841;DHT22;3458;53.678;14.080;2023-11-21T07:57:30;5.10;99.90
6841;DHT22;3458;53.678;14.080;2023-11-21T07:59:56;5.20;99.90
6841;DHT22;3458;53.678;14.080;2023-11-21T08:02:22;5.20;99.90
6841;DHT22;3458;53.678;14.080;2023-11-21T08:04:47;5.20;99.90
6841;DHT22;3458;53.678;14.080;2023-11-21T08:07:15;5.30;99.90
6841;DHT22;3458;53.678;14.080;2023-11-21T08:09:42;5.20;99.90
6841;DHT22;3458;53.678;14.080;2023-11-21T08:12:09;5.10;99.90
6841;DHT22;3458;53.678;14.080;2023-11-21T08:14:36;5.00;99.90
6841;DHT22;3458;53.678;14.080;2023-11-21T08:17:05;5.00;99.90
6841;DHT22;3458;53.678;14.080;2023-11-21T08:19:30;5.10;99.90
6841;DHT22;3458;53.678;14.080;2023-11-21T08:21:56;5.00;99.90
6841;DHT22;3458;53.678;14.080;2023-11-21T08:24:22;5.00;99.90
6841;DHT22;3458;53.678;14.080;2023-11-21T08:26:47;4.90;99.90
6841;DHT22;3458;53.678;14.080;2023-11-21T08:29:13;5.00;99.90
6841;DHT22;3458;53.678;14.080;2023-11-21T08:31:38;5.10;99.90
6841;DHT22;3458;53.678;14.080;2023-11-21T08:34:04;5.10;99.90
6841;DHT22;3458;53.678;14.080;2023-11-21T08:36:29;5.10;99.90
6841;DHT22;3458;53.678;14.080;2023-11-21T08:38:56;5.10;99.90
6841;DHT22;3458;53.678;14.080;2023-11-21T08:41:22;5.10;99.90
6841;DHT22;3458;53.678;14.080;2023-11-21T08:43:49;5.20;99.90
6841;DHT22;3458;53.678;14.080;2023-11-21T08:46:15;5.30;99.90
6841;DHT22;3458;53.678;14.080;2023-11-21T08:48:42;5.30;99.90
6841;DHT22;3458;53.678;14.080;2023-11-21T08:51:10;5.40;99.90
6841;DHT22;3458;53.678;14.080;2023-11-21T08:53:37;5.40;99.90
6841;DHT22;3458;53.678;14.080;2023-11-21T08:56:03;5.40;99.90
6841;DHT22;3458;53.678;14.080;2023-11-21T08:58:30;5.50;99.90
6841;DHT22;3458;53.678;14.080;2023-11-21T09:00:56;5.50;99.90
6841;DHT22;3458;53.678;14.080;2023-11-21T09:03:21;5.50;99.90
6841;DHT22;3458;53.678;14.080;2023-11-21T09:05:47;5.60;99.90
6841;DHT22;3458;53.678;14.080;2023-11-21T09:08:12;5.60;99.90
6841;DHT22;3458;53.678;14.080;2023-11-21T09:10:38;5.70;99.90
6841;DHT22;3458;53.678;14.080;2023-11-21T09:13:04;5.70;99.90
6841;DHT22;3458;53.678;14.080;2023-11-21T09:15:30;5.60;99.90
6841;DHT22;3458;53.678;14.080;2023-11-21T09:17:55;5.60;99.90
6841;DHT22;3458;53.678;14.080;2023-11-21T09:20:21;5.70;99.90
6841;DHT22;3458;53.678;14.080;2023-11-21T09:22:48;5.80;99.90
6841;DHT22;3458;53.678;14.080;2023-11-21T09:25:14;5.80;99.90
6841;DHT22;3458;53.678;14.080;2023-11-21T09:27:40;5.90;99.90
6841;DHT22;3458;53.678;14.080;2023-11-21T09:30:07;6.00;99.90
6841;DHT22;3458;53.678;14.080;2023-11-21T09:32:37;6.00;99.90
6841;DHT22;3458;53.678;14.080;2023-11-21T09:35:04;5.90;99.90
6841;DHT22;3458;53.678;14.080;2023-11-21T09:37:30;5.80;99.90
6841;DHT22;3458;53.678;14.080;2023-11-21T09:39:55;5.70;99.90
6841;DHT22;3458;53.678;14.080;2023-11-21T09:42:25;5.70;99.90
6841;DHT22;3458;53.678;14.080;2023-11-21T09:47:54;5.70;99.90
6841;DHT22;3458;53.678;14.080;2023-11-21T09:50:23;5.70;99.90
6841;DHT22;3458;53.678;14.080;2023-11-21T09:53:08;5.70;99.90
6841;DHT22;3458;53.678;14.080;2023-11-21T09:55:37;5.80;99.90
6841;DHT22;3458;53.678;14.080;2023-11-21T09:58:06;5.80;99.90
6841;DHT22;3458;53.678;14.080;2023-11-21T10:00:44;5.70;99.90
6841;DHT22;3458;53.678;14.080;2023-11-21T10:03:10;5.50;99.90
6841;DHT22;3458;53.678;14.080;2023-11-21T10:05:36;5.50;99.90
6841;DHT22;3458;53.678;14.080;2023-11-21T10:08:07;5.50;99.90
6841;DHT22;3458;53.678;14.080;2023-11-21T10:10:33;5.70;99.90
6841;DHT22;3458;53.678;14.080;2023-11-21T10:13:02;5.70;99.90
6841;DHT22;3458;53.678;14.080;2023-11-21T10:15:31;5.80;99.90
6841;DHT22;3458;53.678;14.080;2023-11-21T10:18:01;5.90;99.90
6841;DHT22;3458;53.678;14.080;2023-11-21T10:20:27;5.90;99.90
6841;DHT22;3458;53.678;14.080;2023-11-21T10:22:53;5.90;99.90
6841;DHT22;3458;53.678;14.080;2023-11-21T10:25:18;5.90;99.90
6841;DHT22;3458;53.678;14.080;2023-11-21T10:27:48;5.80;99.90
6841;DHT22;3458;53.678;14.080;2023-11-21T10:30:15;5.70;99.90
6841;DHT22;3458;53.678;14.080;2023-11-21T10:32:42;5.60;99.90
6841;DHT22;3458;53.678;14.080;2023-11-21T10:35:08;5.50;99.90
6841;DHT22;3458;53.678;14.080;2023-11-21T10:37:41;5.50;99.90
6841;DHT22;3458;53.678;14.080;2023-11-21T10:40:09;5.50;99.90
6841;DHT22;3458;53.678;14.080;2023-11-21T10:42:40;5.50;99.90
6841;DHT22;3458;53.678;14.080;2023-11-21T10:45:07;5.60;99.90
6841;DHT22;3458;53.678;14.080;2023-11-21T10:47:40;5.60;99.90
6841;DHT22;3458;53.678;14.080;2023-11-21T10:50:07;5.60;99.90
6841;DHT22;3458;53.678;14.080;2023-11-21T10:52:36;5.70;99.90
6841;DHT22;3458;53.678;14.080;2023-11-21T10:55:16;5.80;99.90
6841;DHT22;3458;53.678;14.080;2023-11-21T10:57:42;5.90;99.90
6841;DHT22;3458;53.678;14.080;2023-11-21T11:00:08;5.80;99.90
6841;DHT22;3458;53.678;14.080;2023-11-21T11:02:37;5.90;99.90
6841;DHT22;3458;53.678;14.080;2023-11-21T11:05:04;5.90;99.90
6841;DHT22;3458;53.678;14.080;2023-11-21T11:07:32;5.90;99.90
6841;DHT22;3458;53.678;14.080;2023-11-21T11:09:59;5.90;99.90
6841;DHT22;3458;53.678;14.080;2023-11-21T11:12:25;6.00;99.90
6841;DHT22;3458;53.678;14.080;2023-11-21T11:14:51;6.20;99.90
6841;DHT22;3458;53.678;14.080;2023-11-21T11:17:19;6.20;99.90
6841;DHT22;3458;53.678;14.080;2023-11-21T11:19:46;6.30;99.90
6841;DHT22;3458;53.678;14.080;2023-11-21T11:22:29;6.30;99.90
6841;DHT22;3458;53.678;14.080;2023-11-21T11:25:30;6.10;99.90
6841;DHT22;3458;53.678;14.080;2023-11-21T11:28:07;6.10;99.90
6841;DHT22;3458;53.678;14.080;2023-11-21T11:33:31;6.20;99.90
6841;DHT22;3458;53.678;14.080;2023-11-21T11:36:22;6.30;99.90
6841;DHT22;3458;53.678;14.080;2023-11-21T11:38:50;6.30;99.90
6841;DHT22;3458;53.678;14.080;2023-11-21T11:41:32;6.10;99.90
6841;DHT22;3458;53.678;14.080;2023-11-21T11:44:02;6.00;99.90
6841;DHT22;3458;53.678;14.080;2023-11-21T11:46:44;6.10;99.90
6841;DHT22;3458;53.678;14.080;2023-11-21T11:49:27;6.10;99.90
6841;DHT22;3458;53.678;14.080;2023-11-21T11:54:56;6.20;99.90
6841;DHT22;3458;53.678;14.080;2023-11-21T11:57:25;6.30;99.90
6841;DHT22;3458;53.678;14.080;2023-11-21T12:00:13;6.30;99.90
6841;DHT22;3458;53.678;14.080;2023-11-21T12:02:51;6.40;99.90
6841;DHT22;3458;53.678;14.080;2023-11-21T12:05:19;6.40;99.90
6841;DHT22;3458;53.678;14.080;2023-11-21T12:07:57;6.50;99.90
6841;DHT22;3458;53.678;14.080;2023-11-21T12:10:41;6.50;99.90
6841;DHT22;3458;53.678;14.080;2023-11-21T12:13:09;6.40;99.80
6841;DHT22;3458;53.678;14.080;2023-11-21T12:15:37;6.30;99.90
6841;DHT22;3458;53.678;14.080;2023-11-21T12:18:03;6.30;99.60
6841;DHT22;3458;53.678;14.080;2023-11-21T12:20:29;6.20;98.20
6841;DHT22;3458;53.678;14.080;2023-11-21T12:22:58;6.10;97.80
6841;DHT22;3458;53.678;14.080;2023-11-21T12:25:26;6.10;98.30
6841;DHT22;3458;53.678;14.080;2023-11-21T12:27:55;6.00;98.40
6841;DHT22;3458;53.678;14.080;2023-11-21T12:30:22;6.00;98.00
6841;DHT22;3458;53.678;14.080;2023-11-21T12:32:50;6.00;97.90
6841;DHT22;3458;53.678;14.080;2023-11-21T12:35:26;6.00;97.20
6841;DHT22;3458;53.678;14.080;2023-11-21T12:37:53;5.90;96.70
6841;DHT22;3458;53.678;14.080;2023-11-21T12:40:19;5.90;96.70
6841;DHT22;3458;53.678;14.080;2023-11-21T12:42:46;6.00;96.80
6841;DHT22;3458;53.678;14.080;2023-11-21T12:47:53;6.00;96.90
6841;DHT22;3458;53.678;14.080;2023-11-21T12:50:21;5.90;96.50
6841;DHT22;3458;53.678;14.080;2023-11-21T12:52:50;5.90;97.00
6841;DHT22;3458;53.678;14.080;2023-11-21T12:55:20;5.90;96.90
6841;DHT22;3458;53.678;14.080;2023-11-21T12:57:54;5.90;96.80
6841;DHT22;3458;53.678;14.080;2023-11-21T13:00:34;5.90;96.90
6841;DHT22;3458;53.678;14.080;2023-11-21T13:03:03;5.90;97.20
6841;DHT22;3458;53.678;14.080;2023-11-21T13:05:32;5.80;97.00
6841;DHT22;3458;53.678;14.080;2023-11-21T13:08:00;5.80;96.70
6841;DHT22;3458;53.678;14.080;2023-11-21T13:10:29;5.70;96.30
6841;DHT22;3458;53.678;14.080;2023-11-21T13:12:57;5.70;96.80
6841;DHT22;3458;53.678;14.080;2023-11-21T13:15:24;5.60;96.50
6841;DHT22;3458;53.678;14.080;2023-11-21T13:17:50;5.70;96.90
6841;DHT22;3458;53.678;14.080;2023-11-21T13:20:17;5.70;96.80
6841;DHT22;3458;53.678;14.080;2023-11-21T13:22:47;5.60;96.50
6841;DHT22;3458;53.678;14.080;2023-11-21T13:25:15;5.70;96.90
6841;DHT22;3458;53.678;14.080;2023-11-21T13:27:43;5.70;97.00
6841;DHT22;3458;53.678;14.080;2023-11-21T13:30:10;5.70;97.30
6841;DHT22;3458;53.678;14.080;2023-11-21T13:32:35;5.80;97.50
6841;DHT22;3458;53.678;14.080;2023-11-21T13:35:01;5.80;97.50
6841;DHT22;3458;53.678;14.080;2023-11-21T13:37:26;5.80;97.70
6841;DHT22;3458;53.678;14.080;2023-11-21T13:39:53;5.70;97.60
6841;DHT22;3458;53.678;14.080;2023-11-21T13:42:20;5.70;97.50
6841;DHT22;3458;53.678;14.080;2023-11-21T13:44:48;5.70;97.50
6841;DHT22;3458;53.678;14.080;2023-11-21T13:47:16;5.70;97.10
6841;DHT22;3458;53.678;14.080;2023-11-21T13:49:42;5.70;97.40
6841;DHT22;3458;53.678;14.080;2023-11-21T13:52:07;5.70;97.10
6841;DHT22;3458;53.678;14.080;2023-11-21T13:54:33;5.60;97.10
6841;DHT22;3458;53.678;14.080;2023-11-21T13:56:58;5.70;97.50
6841;DHT22;3458;53.678;14.080;2023-11-21T13:59:25;5.70;97.80
6841;DHT22;3458;53.678;14.080;2023-11-21T14:01:54;5.70;98.10
6841;DHT22;3458;53.678;14.080;2023-11-21T14:04:25;5.80;98.30
6841;DHT22;3458;53.678;14.080;2023-11-21T14:07:10;5.70;98.00
6841;DHT22;3458;53.678;14.080;2023-11-21T14:09:54;5.70;98.00
6841;DHT22;3458;53.678;14.080;2023-11-21T14:12:20;5.60;98.20
6841;DHT22;3458;53.678;14.080;2023-11-21T14:14:45;5.60;98.50
6841;DHT22;3458;53.678;14.080;2023-11-21T14:17:13;5.60;98.80
6841;DHT22;3458;53.678;14.080;2023-11-21T14:19:38;5.60;98.70
6841;DHT22;3458;53.678;14.080;2023-11-21T14:22:09;5.50;98.70
6841;DHT22;3458;53.678;14.080;2023-11-21T14:24:35;5.50;98.70
6841;DHT22;3458;53.678;14.080;2023-11-21T14:27:00;5.50;98.60
6841;DHT22;3458;53.678;14.080;2023-11-21T14:29:26;5.50;98.80
6841;DHT22;3458;53.678;14.080;2023-11-21T14:31:52;5.40;98.70
6841;DHT22;3458;53.678;14.080;2023-11-21T14:34:22;5.40;98.70
6841;DHT22;3458;53.678;14.080;2023-11-21T14:36:48;5.40;98.70
6841;DHT22;3458;53.678;14.080;2023-11-21T14:39:14;5.30;98.80
6841;DHT22;3458;53.678;14.080;2023-11-21T14:41:49;5.30;99.00
6841;DHT22;3458;53.678;14.080;2023-11-21T14:44:14;5.30;99.20
6841;DHT22;3458;53.678;14.080;2023-11-21T14:46:41;5.20;99.20
6841;DHT22;3458;53.678;14.080;2023-11-21T14:49:11;5.20;99.30
6841;DHT22;3458;53.678;14.080;2023-11-21T14:51:51;5.20;99.10
6841;DHT22;3458;53.678;14.080;2023-11-21T14:54:29;5.20;99.30
6841;DHT22;3458;53.678;14.080;2023-11-21T14:57:11;5.20;99.40
6841;DHT22;3458;53.678;14.080;2023-11-21T14:59:43;5.20;99.50
6841;DHT22;3458;53.678;14.080;2023-11-21T15:02:10;5.20;99.50
6841;DHT22;3458;53.678;14.080;2023-11-21T15:04:43;5.20;99.40
6841;DHT22;3458;53.678;14.080;2023-11-21T15:07:09;5.10;99.50
6841;DHT22;3458;53.678;14.080;2023-11-21T15:09:36;5.10;99.50
6841;DHT22;3458;53.678;14.080;2023-11-21T15:12:07;5.10;99.30
6841;DHT22;3458;53.678;14.080;2023-11-21T15:14:49;5.10;99.40
6841;DHT22;3458;53.678;14.080;2023-11-21T15:17:18;5.10;99.60
6841;DHT22;3458;53.678;14.080;2023-11-21T15:19:56;5.00;99.30
6841;DHT22;3458;53.678;14.080;2023-11-21T15:22:21;4.90;99.50
6841;DHT22;3458;53.678;14.080;2023-11-21T15:24:47;5.00;99.70
6841;DHT22;3458;53.678;14.080;2023-11-21T15:27:15;5.00;99.90
6841;DHT22;3458;53.678;14.080;2023-11-21T15:29:44;5.00;99.80
6841;DHT22;3458;53.678;14.080;2023-11-21T15:32:10;5.00;99.90
6841;DHT22;3458;53.678;14.080;2023-11-21T15:34:36;5.00;99.90
6841;DHT22;3458;53.678;14.080;2023-11-21T15:37:03;5.00;99.90
6841;DHT22;3458;53.678;14.080;2023-11-21T15:39:30;5.00;99.90
6841;DHT22;3458;53.678;14.080;2023-11-21T15:41:56;5.00;99.90
6841;DHT22;3458;53.678;14.080;2023-11-21T15:44:22;5.10;99.90
6841;DHT22;3458;53.678;14.080;2023-11-21T15:46:50;5.10;99.90
6841;DHT22;3458;53.678;14.080;2023-11-21T15:49:16;5.10;99.90
6841;DHT22;3458;53.678;14.080;2023-11-21T15:51:45;5.10;99.90
6841;DHT22;3458;53.678;14.080;2023-11-21T15:54:13;5.10;99.90
6841;DHT22;3458;53.678;14.080;2023-11-21T15:56:38;5.10;99.90
6841;DHT22;3458;53.678;14.080;2023-11-21T15:59:04;5.00;99.90
6841;DHT22;3458;53.678;14.080;2023-11-21T16:01:30;5.00;99.90
6841;DHT22;3458;53.678;14.080;2023-11-21T16:03:56;5.10;99.90
6841;DHT22;3458;53.678;14.080;2023-11-21T16:06:22;5.00;99.90
6841;DHT22;3458;53.678;14.080;2023-11-21T16:08:48;5.10;99.90
6841;DHT22;3458;53.678;14.080;2023-11-21T16:11:13;5.00;99.90
6841;DHT22;3458;53.678;14.080;2023-11-21T16:13:39;5.00;99.90
6841;DHT22;3458;53.678;14.080;2023-11-21T16:16:06;5.00;99.90